Time,TemperatureF,DewpointF,PressureIn,WindDirection,WindDirectionDegrees,WindSpeedMPH,WindSpeedGustMPH,Humidity,HourlyPrecipIn,Conditions,Clouds,dailyrainin,SoftwareType,DateUTC
2013-03-31 00:01:00,66.0,42.0,29.93,NW,317,9.0,-999.0,41,-99.99,,,-99.99,,2013-03-31 07:01:00,
2013-03-31 00:11:00,66.0,42.0,29.93,NW,317,9.0,-999.0,41,-99.99,,,-99.99,,2013-03-31 07:11:00,
2013-03-31 00:22:00,67.0,39.0,29.93,NW,316,9.0,-999.0,36,-99.99,,,-99.99,,2013-03-31 07:22:00,
2013-03-31 00:32:00,67.0,38.0,29.93,NW,325,7.0,-999.0,35,-99.99,,,-99.99,,2013-03-31 07:32:00,
2013-03-31 00:42:00,67.0,38.0,29.93,NW,325,7.0,-999.0,35,-99.99,,,-99.99,,2013-03-31 07:42:00,
2013-03-31 00:53:00,67.0,38.0,29.93,NW,311,6.0,-999.0,34,-99.99,,,-99.99,,2013-03-31 07:53:00,
2013-03-31 01:01:00,67.0,35.0,29.93,WNW,299,6.0,-999.0,30,-99.99,,,-99.99,,2013-03-31 08:01:00,
2013-03-31 01:12:00,67.0,35.0,29.93,WNW,299,6.0,-999.0,30,-99.99,,,-99.99,,2013-03-31 08:12:00,
2013-03-31 01:22:00,72.0,32.0,29.93,WNW,298,4.0,-999.0,23,-99.99,,,-99.99,,2013-03-31 08:22:00,
2013-03-31 01:32:00,69.0,35.0,29.93,WNW,298,6.0,-999.0,29,-99.99,,,-99.99,,2013-03-31 08:32:00,
2013-03-31 01:42:00,69.0,35.0,29.93,WNW,298,6.0,-999.0,29,-99.99,,,-99.99,,2013-03-31 08:42:00,
2013-03-31 01:52:00,67.0,35.0,29.93,WNW,293,6.0,-999.0,31,-99.99,,,-99.99,,2013-03-31 08:52:00,
2013-03-31 02:01:00,70.0,34.0,29.93,WNW,288,6.0,-999.0,26,-99.99,,,-99.99,,2013-03-31 09:01:00,
2013-03-31 02:11:00,70.0,34.0,29.93,WNW,288,6.0,-999.0,26,-99.99,,,-99.99,,2013-03-31 09:11:00,
2013-03-31 02:21:00,63.0,41.0,29.93,WNW,288,1.0,-999.0,45,-99.99,,,-99.99,,2013-03-31 09:21:00,
2013-03-31 02:32:00,66.0,38.0,29.93,WNW,288,2.0,-999.0,35,-99.99,,,-99.99,,2013-03-31 09:32:00,
2013-03-31 02:42:00,66.0,38.0,29.93,WNW,288,2.0,-999.0,35,-99.99,,,-99.99,,2013-03-31 09:42:00,
2013-03-31 02:53:00,66.0,38.0,29.93,WNW,288,0.0,-999.0,36,-99.99,,,-99.99,,2013-03-31 09:53:00,
2013-03-31 03:02:00,69.0,39.0,29.93,WNW,288,0.0,-999.0,34,-99.99,,,-99.99,,2013-03-31 10:02:00,
2013-03-31 03:12:00,69.0,39.0,29.93,WNW,288,0.0,-999.0,34,-99.99,,,-99.99,,2013-03-31 10:12:00,
2013-03-31 03:23:00,69.0,38.0,29.93,WNW,288,4.0,-999.0,32,-99.99,,,-99.99,,2013-03-31 10:23:00,
2013-03-31 03:32:00,68.0,38.0,29.92,WNW,288,3.0,-999.0,33,-99.99,,,-99.99,,2013-03-31 10:32:00,
2013-03-31 03:42:00,68.0,38.0,29.92,WNW,288,3.0,-999.0,33,-99.99,,,-99.99,,2013-03-31 10:42:00,
2013-03-31 03:53:00,60.0,43.0,29.92,WNW,288,0.0,-999.0,53,-99.99,,,-99.99,,2013-03-31 10:53:00,
2013-03-31 04:02:00,58.0,38.0,29.92,East,91,3.0,-999.0,47,-99.99,,,-99.99,,2013-03-31 11:02:00,
2013-03-31 04:22:00,59.0,41.0,29.92,East,91,0.0,-999.0,51,-99.99,,,-99.99,,2013-03-31 11:22:00,
2013-03-31 04:32:00,59.0,37.0,29.92,East,94,2.0,-999.0,43,-99.99,,,-99.99,,2013-03-31 11:32:00,
2013-03-31 04:52:00,60.0,41.0,29.92,East,96,1.0,-999.0,50,-99.99,,,-99.99,,2013-03-31 11:52:00,
2013-03-31 05:02:00,59.0,41.0,29.91,East,98,2.0,-999.0,51,-99.99,,,-99.99,,2013-03-31 12:02:00,
2013-03-31 05:22:00,59.0,40.0,29.92,East,98,1.0,-999.0,49,-99.99,,,-99.99,,2013-03-31 12:22:00,
2013-03-31 05:32:00,57.0,38.0,29.93,East,98,0.0,-999.0,49,-99.99,,,-99.99,,2013-03-31 12:32:00,
2013-03-31 05:52:00,56.0,39.0,29.93,East,98,0.0,-999.0,53,-99.99,,,-99.99,,2013-03-31 12:52:00,
2013-03-31 06:02:00,56.0,38.0,29.93,East,98,0.0,-999.0,51,-99.99,,,-99.99,,2013-03-31 13:02:00,
2013-03-31 06:22:00,55.0,41.0,29.93,East,98,0.0,-999.0,58,-99.99,,,-99.99,,2013-03-31 13:22:00,
2013-03-31 06:32:00,56.0,42.0,29.94,East,98,0.0,-999.0,60,-99.99,,,-99.99,,2013-03-31 13:32:00,
2013-03-31 06:42:00,56.0,42.0,29.94,East,98,0.0,-999.0,60,-99.99,,,-99.99,,2013-03-31 13:42:00,
2013-03-31 06:53:00,55.0,42.0,29.95,East,98,0.0,-999.0,61,-99.99,,,-99.99,,2013-03-31 13:53:00,
2013-03-31 07:02:00,56.0,44.0,29.95,East,98,1.0,-999.0,63,-99.99,,,-99.99,,2013-03-31 14:02:00,
2013-03-31 07:11:00,56.0,44.0,29.95,East,98,1.0,-999.0,63,-99.99,,,-99.99,,2013-03-31 14:11:00,
2013-03-31 07:22:00,56.0,42.0,29.96,East,98,2.0,-999.0,59,-99.99,,,-99.99,,2013-03-31 14:22:00,
2013-03-31 07:32:00,57.0,41.0,29.96,East,99,1.0,-999.0,54,-99.99,,,-99.99,,2013-03-31 14:32:00,
2013-03-31 07:42:00,57.0,41.0,29.96,East,99,1.0,-999.0,54,-99.99,,,-99.99,,2013-03-31 14:42:00,
2013-03-31 07:52:00,60.0,37.0,29.96,East,99,0.0,-999.0,43,-99.99,,,-99.99,,2013-03-31 14:52:00,
2013-03-31 08:02:00,61.0,33.0,29.97,East,99,0.0,-999.0,35,-99.99,,,-99.99,,2013-03-31 15:02:00,
2013-03-31 08:12:00,61.0,33.0,29.97,East,99,0.0,-999.0,35,-99.99,,,-99.99,,2013-03-31 15:12:00,
2013-03-31 08:22:00,64.0,39.0,29.97,East,99,0.0,-999.0,40,-99.99,,,-99.99,,2013-03-31 15:22:00,
2013-03-31 08:33:00,66.0,41.0,29.97,East,99,0.0,-999.0,40,-99.99,,,-99.99,,2013-03-31 15:33:00,
2013-03-31 08:42:00,66.0,41.0,29.97,East,99,0.0,-999.0,40,-99.99,,,-99.99,,2013-03-31 15:42:00,
2013-03-31 08:53:00,69.0,43.0,29.98,East,99,0.0,-999.0,39,-99.99,,,-99.99,,2013-03-31 15:53:00,
2013-03-31 09:02:00,70.0,44.0,29.98,ESE,102,0.0,-999.0,39,-99.99,,,-99.99,,2013-03-31 16:02:00,
2013-03-31 09:13:00,70.0,44.0,29.98,ESE,102,0.0,-999.0,39,-99.99,,,-99.99,,2013-03-31 16:13:00,
2013-03-31 09:22:00,70.0,44.0,29.98,ESE,102,0.0,-999.0,39,-99.99,,,-99.99,,2013-03-31 16:22:00,
2013-03-31 09:32:00,72.0,43.0,29.98,NNW,347,2.0,-999.0,35,-99.99,,,-99.99,,2013-03-31 16:32:00,
2013-03-31 09:42:00,72.0,43.0,29.98,NNW,347,2.0,-999.0,35,-99.99,,,-99.99,,2013-03-31 16:42:00,
2013-03-31 09:52:00,75.0,43.0,29.98,NNW,334,2.0,-999.0,32,-99.99,,,-99.99,,2013-03-31 16:52:00,
2013-03-31 10:02:00,76.0,46.0,29.98,NW,319,4.0,-999.0,35,-99.99,,,-99.99,,2013-03-31 17:02:00,
2013-03-31 10:22:00,78.0,44.0,29.98,NW,305,4.0,-999.0,30,-99.99,,,-99.99,,2013-03-31 17:22:00,
2013-03-31 10:32:00,78.0,40.0,29.98,NW,305,5.0,-999.0,26,-99.99,,,-99.99,,2013-03-31 17:32:00,
2013-03-31 10:42:00,78.0,40.0,29.98,NW,305,5.0,-999.0,26,-99.99,,,-99.99,,2013-03-31 17:42:00,
2013-03-31 10:51:00,79.0,42.0,29.98,NW,314,9.0,-999.0,27,-99.99,,,-99.99,,2013-03-31 17:51:00,
2013-03-31 11:02:00,81.0,46.0,29.98,NW,316,9.0,-999.0,29,-99.99,,,-99.99,,2013-03-31 18:02:00,
2013-03-31 11:12:00,81.0,46.0,29.98,NW,316,9.0,-999.0,29,-99.99,,,-99.99,,2013-03-31 18:12:00,
2013-03-31 11:22:00,81.0,43.0,29.98,NW,314,8.0,-999.0,26,-99.99,,,-99.99,,2013-03-31 18:22:00,
2013-03-31 11:32:00,81.0,44.0,29.98,NW,324,7.0,-999.0,27,-99.99,,,-99.99,,2013-03-31 18:32:00,
2013-03-31 11:42:00,81.0,44.0,29.98,NW,324,7.0,-999.0,27,-99.99,,,-99.99,,2013-03-31 18:42:00,
2013-03-31 11:52:00,82.0,45.0,29.98,NW,309,7.0,-999.0,27,-99.99,,,-99.99,,2013-03-31 18:52:00,
2013-03-31 12:02:00,83.0,45.0,29.97,WNW,299,8.0,-999.0,26,-99.99,,,-99.99,,2013-03-31 19:02:00,
2013-03-31 12:12:00,83.0,45.0,29.97,WNW,299,8.0,-999.0,26,-99.99,,,-99.99,,2013-03-31 19:12:00,
2013-03-31 12:21:00,84.0,43.0,29.97,WNW,301,8.0,-999.0,24,-99.99,,,-99.99,,2013-03-31 19:21:00,
2013-03-31 12:32:00,84.0,44.0,29.97,NNW,336,11.0,-999.0,25,-99.99,,,-99.99,,2013-03-31 19:32:00,
2013-03-31 12:42:00,84.0,44.0,29.97,NNW,336,11.0,-999.0,25,-99.99,,,-99.99,,2013-03-31 19:42:00,
2013-03-31 12:53:00,85.0,45.0,29.96,WNW,292,10.0,-999.0,25,-99.99,,,-99.99,,2013-03-31 19:53:00,
2013-03-31 13:02:00,85.0,47.0,29.96,WNW,288,11.0,-999.0,27,-99.99,,,-99.99,,2013-03-31 20:02:00,
2013-03-31 13:12:00,85.0,47.0,29.96,WNW,288,11.0,-999.0,27,-99.99,,,-99.99,,2013-03-31 20:12:00,
2013-03-31 13:22:00,86.0,48.0,29.96,NW,311,12.0,-999.0,27,-99.99,,,-99.99,,2013-03-31 20:22:00,
2013-03-31 13:32:00,85.0,46.0,29.95,WNW,283,13.0,-999.0,26,-99.99,,,-99.99,,2013-03-31 20:32:00,
2013-03-31 13:42:00,85.0,46.0,29.95,WNW,283,13.0,-999.0,26,-99.99,,,-99.99,,2013-03-31 20:42:00,
2013-03-31 13:52:00,86.0,46.0,29.94,West,265,14.0,-999.0,25,-99.99,,,-99.99,,2013-03-31 20:52:00,
2013-03-31 14:02:00,86.0,47.0,29.93,NW,311,14.0,-999.0,26,-99.99,,,-99.99,,2013-03-31 21:02:00,
2013-03-31 14:12:00,86.0,47.0,29.93,NW,311,14.0,-999.0,26,-99.99,,,-99.99,,2013-03-31 21:12:00,
2013-03-31 14:22:00,86.0,46.0,29.93,WNW,302,12.0,-999.0,25,-99.99,,,-99.99,,2013-03-31 21:22:00,
2013-03-31 14:33:00,86.0,47.0,29.92,NW,311,12.0,-999.0,26,-99.99,,,-99.99,,2013-03-31 21:33:00,
2013-03-31 14:43:00,86.0,47.0,29.92,NW,311,12.0,-999.0,26,-99.99,,,-99.99,,2013-03-31 21:43:00,
2013-03-31 14:53:00,86.0,48.0,29.91,NW,306,12.0,-999.0,27,-99.99,,,-99.99,,2013-03-31 21:53:00,
2013-03-31 15:03:00,87.0,48.0,29.90,NW,304,12.0,-999.0,26,-99.99,,,-99.99,,2013-03-31 22:03:00,
2013-03-31 15:13:00,87.0,48.0,29.90,NW,304,12.0,-999.0,26,-99.99,,,-99.99,,2013-03-31 22:13:00,
2013-03-31 15:23:00,86.0,49.0,29.89,NW,313,13.0,-999.0,28,-99.99,,,-99.99,,2013-03-31 22:23:00,
2013-03-31 15:32:00,86.0,46.0,29.89,West,270,9.0,-999.0,25,-99.99,,,-99.99,,2013-03-31 22:32:00,
2013-03-31 15:42:00,86.0,46.0,29.89,West,270,9.0,-999.0,25,-99.99,,,-99.99,,2013-03-31 22:42:00,
2013-03-31 15:52:00,87.0,47.0,29.88,WSW,244,9.0,-999.0,25,-99.99,,,-99.99,,2013-03-31 22:52:00,
2013-03-31 16:02:00,86.0,47.0,29.88,WSW,247,8.0,-999.0,26,-99.99,,,-99.99,,2013-03-31 23:02:00,
2013-03-31 16:12:00,86.0,47.0,29.88,WSW,247,8.0,-999.0,26,-99.99,,,-99.99,,2013-03-31 23:12:00,
2013-03-31 16:22:00,86.0,45.0,29.88,WNW,284,9.0,-999.0,24,-99.99,,,-99.99,,2013-03-31 23:22:00,
2013-03-31 16:32:00,85.0,47.0,29.88,WNW,289,9.0,-999.0,27,-99.99,,,-99.99,,2013-03-31 23:32:00,
2013-03-31 16:42:00,85.0,47.0,29.88,WNW,289,9.0,-999.0,27,-99.99,,,-99.99,,2013-03-31 23:42:00,
2013-03-31 16:52:00,85.0,46.0,29.87,WSW,257,8.0,-999.0,26,-99.99,,,-99.99,,2013-03-31 23:52:00,
2013-03-31 17:02:00,85.0,47.0,29.87,West,275,8.0,-999.0,27,-99.99,,,-99.99,,2013-04-01 00:02:00,
2013-03-31 17:12:00,85.0,47.0,29.87,West,275,8.0,-999.0,27,-99.99,,,-99.99,,2013-04-01 00:12:00,
2013-03-31 17:22:00,84.0,46.0,29.87,West,259,9.0,-999.0,27,-99.99,,,-99.99,,2013-04-01 00:22:00,
2013-03-31 17:32:00,84.0,46.0,29.86,WSW,254,7.0,-999.0,27,-99.99,,,-99.99,,2013-04-01 00:32:00,
2013-03-31 17:42:00,84.0,46.0,29.86,WSW,254,7.0,-999.0,27,-99.99,,,-99.99,,2013-04-01 00:42:00,
2013-03-31 17:52:00,84.0,46.0,29.86,WSW,254,7.0,-999.0,27,-99.99,,,-99.99,,2013-04-01 00:52:00,
2013-03-31 18:02:00,84.0,44.0,29.86,West,266,9.0,-999.0,25,-99.99,,,-99.99,,2013-04-01 01:02:00,
2013-03-31 18:12:00,84.0,44.0,29.86,West,266,9.0,-999.0,25,-99.99,,,-99.99,,2013-04-01 01:12:00,
2013-03-31 18:22:00,84.0,44.0,29.86,WNW,286,9.0,-999.0,25,-99.99,,,-99.99,,2013-04-01 01:22:00,
2013-03-31 18:32:00,83.0,45.0,29.86,WNW,295,10.0,-999.0,26,-99.99,,,-99.99,,2013-04-01 01:32:00,
2013-03-31 18:42:00,83.0,45.0,29.86,WNW,295,10.0,-999.0,26,-99.99,,,-99.99,,2013-04-01 01:42:00,
2013-03-31 18:52:00,81.0,45.0,29.86,WNW,283,10.0,-999.0,28,-99.99,,,-99.99,,2013-04-01 01:52:00,
2013-03-31 19:02:00,79.0,45.0,29.86,WNW,284,9.0,-999.0,30,-99.99,,,-99.99,,2013-04-01 02:02:00,
2013-03-31 19:12:00,79.0,45.0,29.86,WNW,284,9.0,-999.0,30,-99.99,,,-99.99,,2013-04-01 02:12:00,
2013-03-31 19:22:00,77.0,45.0,29.86,WNW,288,8.0,-999.0,32,-99.99,,,-99.99,,2013-04-01 02:22:00,
2013-03-31 19:32:00,76.0,44.0,29.87,WNW,287,8.0,-999.0,32,-99.99,,,-99.99,,2013-04-01 02:32:00,
2013-03-31 19:52:00,75.0,41.0,29.87,WNW,285,6.0,-999.0,30,-99.99,,,-99.99,,2013-04-01 02:52:00,
2013-03-31 20:02:00,74.0,43.0,29.88,NNW,348,5.0,-999.0,33,-99.99,,,-99.99,,2013-04-01 03:02:00,
2013-03-31 20:12:00,74.0,43.0,29.88,NNW,348,5.0,-999.0,33,-99.99,,,-99.99,,2013-04-01 03:12:00,
2013-03-31 20:22:00,71.0,45.0,29.88,NW,309,3.0,-999.0,40,-99.99,,,-99.99,,2013-04-01 03:22:00,
2013-03-31 20:33:00,69.0,47.0,29.89,WNW,288,2.0,-999.0,45,-99.99,,,-99.99,,2013-04-01 03:33:00,
2013-03-31 20:52:00,70.0,45.0,29.89,WNW,288,3.0,-999.0,40,-99.99,,,-99.99,,2013-04-01 03:52:00,
2013-03-31 21:02:00,71.0,44.0,29.89,WNW,288,3.0,-999.0,38,-99.99,,,-99.99,,2013-04-01 04:02:00,
2013-03-31 21:13:00,71.0,44.0,29.89,WNW,288,3.0,-999.0,38,-99.99,,,-99.99,,2013-04-01 04:13:00,
2013-03-31 21:23:00,70.0,43.0,29.90,West,275,4.0,-999.0,37,-99.99,,,-99.99,,2013-04-01 04:23:00,
2013-03-31 21:32:00,71.0,42.0,29.90,WSW,254,3.0,-999.0,35,-99.99,,,-99.99,,2013-04-01 04:32:00,
2013-03-31 21:43:00,71.0,42.0,29.90,WSW,254,3.0,-999.0,35,-99.99,,,-99.99,,2013-04-01 04:43:00,
2013-03-31 21:52:00,71.0,42.0,29.90,WSW,254,3.0,-999.0,35,-99.99,,,-99.99,,2013-04-01 04:52:00,
2013-03-31 22:02:00,69.0,44.0,29.92,West,271,2.0,-999.0,40,-99.99,,,-99.99,,2013-04-01 05:02:00,
2013-03-31 22:12:00,69.0,44.0,29.92,West,271,2.0,-999.0,40,-99.99,,,-99.99,,2013-04-01 05:12:00,
2013-03-31 22:22:00,68.0,43.0,29.92,WNW,283,2.0,-999.0,40,-99.99,,,-99.99,,2013-04-01 05:22:00,
2013-03-31 22:32:00,67.0,43.0,29.93,WNW,292,4.0,-999.0,42,-99.99,,,-99.99,,2013-04-01 05:32:00,
2013-03-31 22:42:00,67.0,43.0,29.93,WNW,292,4.0,-999.0,42,-99.99,,,-99.99,,2013-04-01 05:42:00,
2013-03-31 22:52:00,67.0,43.0,29.93,WNW,284,6.0,-999.0,42,-99.99,,,-99.99,,2013-04-01 05:52:00,
2013-03-31 23:02:00,67.0,43.0,29.93,WNW,291,6.0,-999.0,41,-99.99,,,-99.99,,2013-04-01 06:02:00,
2013-03-31 23:12:00,67.0,43.0,29.93,WNW,291,6.0,-999.0,41,-99.99,,,-99.99,,2013-04-01 06:12:00,
2013-03-31 23:22:00,68.0,43.0,29.93,WNW,286,9.0,-999.0,40,-99.99,,,-99.99,,2013-04-01 06:22:00,
2013-03-31 23:33:00,66.0,43.0,29.93,West,275,6.0,-999.0,43,-99.99,,,-99.99,,2013-04-01 06:33:00,
2013-03-31 23:42:00,66.0,43.0,29.93,West,275,6.0,-999.0,43,-99.99,,,-99.99,,2013-04-01 06:42:00,
2013-03-31 23:52:00,65.0,43.0,29.93,West,279,4.0,-999.0,44,-99.99,,,-99.99,,2013-04-01 06:52:00,